Nicolville, Minnesota
Current Conditions -  °F | °C
As of 6:36 PM on Saturday 20 Dec 2014 (Local Time) from KAUM Reporting Station
Overcast Overcast  
Wind Chill: 30°   Ceiling: 1400
Heat Index: 30°   Visibility: 7mi
Dew Point: 28°   Wind: 3mph
Humidity: 93%   Direction: 170°S
Pressure: 30.12"   Gusts: NA
Location:  43.7173°N, 92.9889°W
Report Text: KAUM 210036Z AUTO 17003KT 7SM OVC014 M01/M02 A3012 RMK AO2
Loading
Personal Weather Stations






























Interactive Weather Map New forecast layout! Learn more

10-Day Weather Forecast

Advertisements
Track Severe Weather on mobile